OOCL Long Beach — VRYO4 — position and weather

sailwx.info

Track history (hours):
 
Tides and Currents Weather Stations Pressure Air Temp Water Temp Dewpoint Dewpoint Depression Visibility Wind Speed Wind Dir Waves Ship Positions

OOCL Long Beach

Last reported at 2014-Nov-13 08:33 UTC. Time now 2014-Nov-24 12:22 UTC.
Position N 22°56' E 119°57'.
Warning: this ship's position is 11 days out of date.

Length 323 m; beam 42.8 m; draft 14.5 m.

Type: Cargo ship. MMSI: 477316000.

Date/timePositionNaut miles runAvg speedWind from/ knotsBaromVisibWave heightAir tempDewpointWater temp
2014-Nov-13 08:33N 22°56' E 119°57'2020.0
2014-Nov-13 07:33N 22°39' E 120°09'1111.0
2014-Nov-13 06:33N 22°33' E 120°19'1 0.3
2014-Nov-13 02:32N 22°34' E 120°19'0 0.0
2014-Nov-13 01:20N 22°34' E 120°19'0 0.0
2014-Nov-13 00:32N 22°34' E 120°19'0 0.0
2014-Nov-12 23:26N 22°34' E 120°19'1 0.1
2014-Nov-12 12:32N 22°33' E 120°18'7 7.1
2014-Nov-12 11:33N 22°30' E 120°11'2 1.4
2014-Nov-12 10:21N 22°31' E 120°10'3 3.4
2014-Nov-12 09:33N 22°31' E 120°07'9 8.8
2014-Nov-12 08:33N 22°30' E 119°57'1110.9
2014-Nov-12 07:33N 22°29' E 119°46'30416.6
2014-Nov-11 13:11N 22°34' E 114°17'0 0.1
2014-Nov-11 10:19N 22°34' E 114°16'0 0.0
2014-Nov-11 03:19N 22°34' E 114°16'0 0.0
2014-Nov-11 02:31N 22°34' E 114°16'0 0.0
2014-Nov-11 01:31N 22°34' E 114°16'0 0.0
2014-Nov-11 00:19N 22°34' E 114°16'0 0.0
2014-Nov-10 23:13N 22°34' E 114°16'0 0.1
2014-Nov-10 22:32N 22°34' E 114°16'21 4.1
2014-Nov-10 17:30N 22°15' E 114°07'5 1.1
2014-Nov-10 12:22N 22°21' E 114°07'0 0.0
2014-Nov-10 07:04N 22°21' E 114°07'2 1.0
2014-Nov-10 05:33N 22°19' E 114°07'9 8.5
2014-Nov-10 04:30N 22°21' E 113°57'6 6.3
2014-Nov-10 03:33N 22°25' E 113°53'7 4.8
2014-Nov-10 02:06N 22°32' E 113°51'0 0.0
2014-Nov-10 01:30N 22°32' E 113°51'0 0.0
2014-Nov-10 00:30N 22°32' E 113°51'0 0.0
2014-Nov-09 23:30N 22°32' E 113°51'0 0.0
2014-Nov-09 22:30N 22°32' E 113°51'0 0.0
2014-Nov-09 20:30N 22°32' E 113°51'0 0.0
2014-Nov-09 19:30N 22°32' E 113°51'0 0.0
2014-Nov-09 18:24N 22°32' E 113°51'0 0.0
2014-Nov-09 17:06N 22°32' E 113°51'0 0.0
2014-Nov-09 14:30N 22°32' E 113°51'0 0.0
2014-Nov-09 13:30N 22°32' E 113°51'0 0.0
2014-Nov-09 10:06N 22°32' E 113°51'0 0.0
2014-Nov-09 08:12N 22°32' E 113°51'0 0.0
2014-Nov-09 07:14N 22°32' E 113°51'4 6.2
2014-Nov-09 06:33N 22°28' E 113°52'1210.0
2014-Nov-09 05:22N 22°21' E 114°03'4 5.4
2014-Nov-09 04:33N 22°20' E 114°07'1 0.4
2014-Nov-09 01:19N 22°21' E 114°07'0 0.0
2014-Nov-08 11:07N 22°21' E 114°07'2 3.2
2014-Nov-08 10:33N 22°19' E 114°06'11 9.3
2014-Nov-08 09:23N 22°10' E 114°12'157 6.8
2014-Nov-07 10:23N 22°53' E 116°56'910.5
2014-Nov-07 09:31N 22°57' E 117°04'1111.0
2014-Nov-07 08:32N 23°03' E 117°14'5711.4
2014-Nov-07 03:32N 23°44' E 117°57'2412.2
2014-Nov-07 01:32N 24°01' E 118°16'1414.0
2014-Nov-07 00:32N 24°15' E 118°15'1212.6
2014-Nov-06 23:33N 24°24' E 118°06'6 5.3
2014-Nov-06 22:30N 24°27' E 118°00'0 0.0
2014-Nov-06 21:12N 24°27' E 118°00'0 0.0
2014-Nov-06 20:30N 24°27' E 118°00'0 0.0
2014-Nov-06 19:30N 24°27' E 118°00'0 0.0
2014-Nov-06 18:30N 24°27' E 118°00'0 0.0
2014-Nov-06 15:30N 24°27' E 118°00'0 0.0
2014-Nov-06 14:12N 24°27' E 118°00'0 0.0
2014-Nov-06 13:24N 24°27' E 118°00'0 0.0
2014-Nov-06 11:18N 24°27' E 118°00'0 0.0
2014-Nov-06 09:06N 24°27' E 118°00'0 0.0
2014-Nov-06 08:30N 24°27' E 118°00'1 0.7
2014-Nov-06 06:33N 24°26' E 118°02'1211.6
2014-Nov-06 05:32N 24°19' E 118°12'12 5.7
2014-Nov-06 03:23N 24°11' E 118°22'0 0.1
2014-Nov-06 00:23N 24°11' E 118°22'0 0.1
2014-Nov-05 23:23N 24°11' E 118°22'0 0.1
2014-Nov-05 22:17N 24°11' E 118°22'0 0.1
2014-Nov-05 20:17N 24°11' E 118°22'3 1.1
2014-Nov-05 17:29N 24°10' E 118°25'10 9.4
2014-Nov-05 16:28N 24°03' E 118°32'10 9.5
2014-Nov-05 15:25N 23°55' E 118°40'12 9.9
2014-Nov-05 14:12N 23°47' E 118°49'710.4
2014-Nov-05 13:31N 23°42' E 118°54'1110.7
2014-Nov-05 12:32N 23°34' E 119°03'2311.4
2014-Nov-05 10:31N 23°16' E 119°19'1212.2
2014-Nov-05 09:32N 23°06' E 119°25'19 9.6
2014-Nov-05 07:31N 22°56' E 119°43'8 8.6
2014-Nov-05 06:33N 22°51' E 119°50'9 8.9
2014-Nov-05 05:33N 22°46' E 119°58'9 9.1
2014-Nov-05 04:31N 22°39' E 120°05'9 9.3
2014-Nov-05 03:33N 22°33' E 120°12'6 6.3
2014-Nov-05 02:34N 22°34' E 120°19'0 0.1
2014-Nov-05 01:30N 22°34' E 120°19'0 0.0
2014-Nov-05 00:18N 22°34' E 120°19'0 0.0
2014-Nov-04 07:18N 22°34' E 120°19'0 0.0
2014-Nov-04 06:30N 22°34' E 120°19'0 0.0
2014-Nov-04 03:24N 22°34' E 120°19'0 0.0
2014-Nov-04 02:24N 22°34' E 120°19'0 0.0
2014-Nov-04 01:30N 22°34' E 120°19'0 0.0
2014-Nov-04 00:30N 22°34' E 120°19'0 0.0
2014-Nov-03 19:33N 22°34' E 120°19'2 3.7
2014-Nov-03 19:03N 22°33' E 120°17'5 8.9
2014-Nov-03 18:27N 22°31' E 120°12'2 9.1
2014-Nov-03 18:11N 22°29' E 120°10'2 1.4
2014-Nov-03 16:29N 22°31' E 120°09'16 7.9
2014-Nov-03 14:32N 22°46' E 120°04'1111.1
2014-Nov-03 13:33N 22°55' E 119°57'  
Track history (hours):
 
Tides and Currents Weather Stations Pressure Air Temp Water Temp Dewpoint Dewpoint Depression Visibility Wind Speed Wind Dir Waves Ship Positions

OOCL Long Beach

Last reported at 2014-Nov-13 08:33 UTC. Time now 2014-Nov-24 12:22 UTC.
Position N 22°56' E 119°57'.
Warning: this ship's position is 11 days out of date.

Length 323 m; beam 42.8 m; draft 14.5 m.

Type: Cargo ship. MMSI: 477316000.

Date/timePositionNaut miles runAvg speedWind from/ knotsBaromVisibWave heightAir tempDewpointWater temp
2014-Nov-13 08:33N 22°56' E 119°57'2020.0
2014-Nov-13 07:33N 22°39' E 120°09'1111.0
2014-Nov-13 06:33N 22°33' E 120°19'1 0.3
2014-Nov-13 02:32N 22°34' E 120°19'0 0.0
2014-Nov-13 01:20N 22°34' E 120°19'0 0.0
2014-Nov-13 00:32N 22°34' E 120°19'0 0.0
2014-Nov-12 23:26N 22°34' E 120°19'1 0.1
2014-Nov-12 12:32N 22°33' E 120°18'7 7.1
2014-Nov-12 11:33N 22°30' E 120°11'2 1.4
2014-Nov-12 10:21N 22°31' E 120°10'3 3.4
2014-Nov-12 09:33N 22°31' E 120°07'9 8.8
2014-Nov-12 08:33N 22°30' E 119°57'1110.9
2014-Nov-12 07:33N 22°29' E 119°46'30416.6
2014-Nov-11 13:11N 22°34' E 114°17'0 0.1
2014-Nov-11 10:19N 22°34' E 114°16'0 0.0
2014-Nov-11 03:19N 22°34' E 114°16'0 0.0
2014-Nov-11 02:31N 22°34' E 114°16'0 0.0
2014-Nov-11 01:31N 22°34' E 114°16'0 0.0
2014-Nov-11 00:19N 22°34' E 114°16'0 0.0
2014-Nov-10 23:13N 22°34' E 114°16'0 0.1
2014-Nov-10 22:32N 22°34' E 114°16'21 4.1
2014-Nov-10 17:30N 22°15' E 114°07'5 1.1
2014-Nov-10 12:22N 22°21' E 114°07'0 0.0
2014-Nov-10 07:04N 22°21' E 114°07'2 1.0
2014-Nov-10 05:33N 22°19' E 114°07'9 8.5
2014-Nov-10 04:30N 22°21' E 113°57'6 6.3
2014-Nov-10 03:33N 22°25' E 113°53'7 4.8
2014-Nov-10 02:06N 22°32' E 113°51'0 0.0
2014-Nov-10 01:30N 22°32' E 113°51'0 0.0
2014-Nov-10 00:30N 22°32' E 113°51'0 0.0
2014-Nov-09 23:30N 22°32' E 113°51'0 0.0
2014-Nov-09 22:30N 22°32' E 113°51'0 0.0
2014-Nov-09 20:30N 22°32' E 113°51'0 0.0
2014-Nov-09 19:30N 22°32' E 113°51'0 0.0
2014-Nov-09 18:24N 22°32' E 113°51'0 0.0
2014-Nov-09 17:06N 22°32' E 113°51'0 0.0
2014-Nov-09 14:30N 22°32' E 113°51'0 0.0
2014-Nov-09 13:30N 22°32' E 113°51'0 0.0
2014-Nov-09 10:06N 22°32' E 113°51'0 0.0
2014-Nov-09 08:12N 22°32' E 113°51'0 0.0
2014-Nov-09 07:14N 22°32' E 113°51'4 6.2
2014-Nov-09 06:33N 22°28' E 113°52'1210.0
2014-Nov-09 05:22N 22°21' E 114°03'4 5.4
2014-Nov-09 04:33N 22°20' E 114°07'1 0.4
2014-Nov-09 01:19N 22°21' E 114°07'0 0.0
2014-Nov-08 11:07N 22°21' E 114°07'2 3.2
2014-Nov-08 10:33N 22°19' E 114°06'11 9.3
2014-Nov-08 09:23N 22°10' E 114°12'157 6.8
2014-Nov-07 10:23N 22°53' E 116°56'910.5
2014-Nov-07 09:31N 22°57' E 117°04'1111.0
2014-Nov-07 08:32N 23°03' E 117°14'5711.4
2014-Nov-07 03:32N 23°44' E 117°57'2412.2
2014-Nov-07 01:32N 24°01' E 118°16'1414.0
2014-Nov-07 00:32N 24°15' E 118°15'1212.6
2014-Nov-06 23:33N 24°24' E 118°06'6 5.3
2014-Nov-06 22:30N 24°27' E 118°00'0 0.0
2014-Nov-06 21:12N 24°27' E 118°00'0 0.0
2014-Nov-06 20:30N 24°27' E 118°00'0 0.0
2014-Nov-06 19:30N 24°27' E 118°00'0 0.0
2014-Nov-06 18:30N 24°27' E 118°00'0 0.0
2014-Nov-06 15:30N 24°27' E 118°00'0 0.0
2014-Nov-06 14:12N 24°27' E 118°00'0 0.0
2014-Nov-06 13:24N 24°27' E 118°00'0 0.0
2014-Nov-06 11:18N 24°27' E 118°00'0 0.0
2014-Nov-06 09:06N 24°27' E 118°00'0 0.0
2014-Nov-06 08:30N 24°27' E 118°00'1 0.7
2014-Nov-06 06:33N 24°26' E 118°02'1211.6
2014-Nov-06 05:32N 24°19' E 118°12'12 5.7
2014-Nov-06 03:23N 24°11' E 118°22'0 0.1
2014-Nov-06 00:23N 24°11' E 118°22'0 0.1
2014-Nov-05 23:23N 24°11' E 118°22'0 0.1
2014-Nov-05 22:17N 24°11' E 118°22'0 0.1
2014-Nov-05 20:17N 24°11' E 118°22'3 1.1
2014-Nov-05 17:29N 24°10' E 118°25'10 9.4
2014-Nov-05 16:28N 24°03' E 118°32'10 9.5
2014-Nov-05 15:25N 23°55' E 118°40'12 9.9
2014-Nov-05 14:12N 23°47' E 118°49'710.4
2014-Nov-05 13:31N 23°42' E 118°54'1110.7
2014-Nov-05 12:32N 23°34' E 119°03'2311.4
2014-Nov-05 10:31N 23°16' E 119°19'1212.2
2014-Nov-05 09:32N 23°06' E 119°25'19 9.6
2014-Nov-05 07:31N 22°56' E 119°43'8 8.6
2014-Nov-05 06:33N 22°51' E 119°50'9 8.9
2014-Nov-05 05:33N 22°46' E 119°58'9 9.1
2014-Nov-05 04:31N 22°39' E 120°05'9 9.3
2014-Nov-05 03:33N 22°33' E 120°12'6 6.3
2014-Nov-05 02:34N 22°34' E 120°19'0 0.1
2014-Nov-05 01:30N 22°34' E 120°19'0 0.0
2014-Nov-05 00:18N 22°34' E 120°19'0 0.0
2014-Nov-04 07:18N 22°34' E 120°19'0 0.0
2014-Nov-04 06:30N 22°34' E 120°19'0 0.0
2014-Nov-04 03:24N 22°34' E 120°19'0 0.0
2014-Nov-04 02:24N 22°34' E 120°19'0 0.0
2014-Nov-04 01:30N 22°34' E 120°19'0 0.0
2014-Nov-04 00:30N 22°34' E 120°19'0 0.0
2014-Nov-03 19:33N 22°34' E 120°19'2 3.7
2014-Nov-03 19:03N 22°33' E 120°17'5 8.9
2014-Nov-03 18:27N 22°31' E 120°12'2 9.1
2014-Nov-03 18:11N 22°29' E 120°10'2 1.4
2014-Nov-03 16:29N 22°31' E 120°09'16 7.9
2014-Nov-03 14:32N 22°46' E 120°04'1111.1
2014-Nov-03 13:33N 22°55' E 119°57'  

Dump ship's entire track history